createdAt,value
2022-11-20T00:01:59.546Z,8.23
2022-11-20T00:05:11.543Z,7.83
2022-11-20T00:08:11.623Z,8.20
2022-11-20T00:11:38.541Z,8.20
2022-11-20T00:14:55.503Z,7.90
2022-11-20T00:18:10.540Z,7.53
2022-11-20T00:21:25.537Z,8.57
2022-11-20T00:24:42.737Z,7.63
2022-11-20T00:27:37.590Z,8.83
2022-11-20T00:31:03.656Z,7.73
2022-11-20T00:34:03.709Z,7.57
2022-11-20T00:37:16.650Z,8.43
2022-11-20T00:40:17.731Z,8.05
2022-11-20T00:43:32.686Z,7.00
2022-11-20T00:46:45.632Z,8.00
2022-11-20T00:49:57.858Z,7.70
2022-11-20T00:52:57.685Z,7.80
2022-11-20T00:56:21.673Z,7.40
2022-11-20T00:59:34.704Z,7.30
2022-11-20T01:03:01.776Z,7.57
2022-11-20T01:06:01.774Z,7.97
2022-11-20T01:09:25.669Z,7.90
2022-11-20T01:12:25.719Z,8.00
2022-11-20T01:15:37.757Z,7.63
2022-11-20T01:18:51.730Z,7.53
2022-11-20T01:22:15.709Z,7.80
2022-11-20T01:25:27.966Z,7.53
2022-11-20T01:28:39.714Z,7.33
2022-11-20T01:31:54.758Z,7.13
2022-11-20T01:35:20.853Z,7.47
2022-11-20T01:38:20.840Z,7.15
2022-11-20T01:41:50.443Z,7.25
2022-11-20T01:45:07.940Z,7.25
2022-11-20T01:48:32.868Z,7.07
2022-11-20T01:51:47.802Z,7.70
2022-11-20T01:55:11.821Z,7.20
2022-11-20T01:58:23.921Z,7.45
2022-11-20T02:01:47.908Z,7.20
2022-11-20T02:05:11.888Z,7.50
2022-11-20T02:08:25.855Z,7.40
2022-11-20T02:11:38.932Z,7.37
2022-11-20T02:14:38.116Z,7.27
2022-11-20T02:18:04.904Z,6.40
2022-11-20T02:21:16.990Z,6.67
2022-11-20T02:24:43.935Z,6.70
2022-11-20T02:27:55.976Z,6.80
2022-11-20T02:31:08.023Z,6.87
2022-11-20T02:34:20.977Z,5.80
2022-11-20T02:37:44.999Z,6.23
2022-11-20T02:40:59.030Z,5.50
2022-11-20T02:44:12.050Z,6.80
2022-11-20T02:47:23.992Z,5.97
2022-11-20T02:50:36.082Z,6.10
2022-11-20T02:53:36.025Z,6.03
2022-11-20T02:57:02.075Z,6.90
2022-11-20T03:00:14.112Z,6.83
2022-11-20T03:03:29.062Z,6.40
2022-11-20T03:06:41.129Z,6.30
2022-11-20T03:09:53.124Z,6.57
2022-11-20T03:13:06.103Z,6.93
2022-11-20T03:16:35.133Z,6.00
2022-11-20T03:19:47.121Z,6.10
2022-11-20T03:22:59.098Z,6.15
2022-11-20T03:26:00.124Z,5.75
2022-11-20T03:29:25.197Z,6.73
2022-11-20T03:32:25.223Z,5.90
2022-11-20T03:35:37.264Z,6.37
2022-11-20T03:38:37.142Z,6.30
2022-11-20T03:42:01.220Z,5.87
2022-11-20T03:45:15.177Z,5.80
2022-11-20T03:48:27.186Z,5.33
2022-11-20T03:51:39.258Z,6.27
2022-11-20T03:54:52.291Z,5.47
2022-11-20T03:57:52.216Z,5.53
2022-11-20T04:01:19.296Z,5.70
2022-11-20T04:04:32.298Z,6.15
2022-11-20T04:07:32.500Z,6.45
2022-11-20T04:10:44.266Z,5.47
2022-11-20T04:13:47.383Z,5.97
2022-11-20T04:17:13.306Z,5.77
2022-11-20T04:20:13.341Z,5.15
2022-11-20T04:23:28.865Z,5.70
2022-11-20T04:26:38.369Z,5.33
2022-11-20T04:29:50.316Z,5.27
2022-11-20T04:33:04.400Z,4.73
2022-11-20T04:36:28.283Z,5.43
2022-11-20T04:39:40.353Z,4.95
2022-11-20T04:42:54.350Z,5.50
2022-11-20T04:45:54.440Z,5.00
2022-11-20T04:49:20.650Z,5.50
2022-11-20T04:52:23.386Z,5.37
2022-11-20T04:55:35.395Z,5.13
2022-11-20T04:58:47.497Z,4.53
2022-11-20T05:01:59.451Z,5.10
2022-11-20T05:05:13.417Z,5.40
2022-11-20T05:08:26.495Z,5.87
2022-11-20T05:11:38.543Z,5.00
2022-11-20T05:14:52.595Z,5.77
2022-11-20T05:17:52.444Z,5.60
2022-11-20T05:21:21.452Z,4.75
2022-11-20T05:24:21.492Z,5.00
2022-11-20T05:27:33.514Z,4.70
2022-11-20T05:30:33.513Z,5.13
2022-11-20T05:33:58.566Z,4.97
2022-11-20T05:37:12.576Z,4.97
2022-11-20T05:40:27.508Z,5.17
2022-11-20T05:43:30.594Z,4.95
2022-11-20T05:46:43.588Z,4.70
2022-11-20T05:49:43.604Z,4.85
2022-11-20T05:53:13.556Z,5.03
2022-11-20T05:56:25.629Z,5.13
2022-11-20T05:59:37.668Z,5.27
2022-11-20T06:02:37.673Z,4.53
2022-11-20T06:05:49.669Z,5.20
2022-11-20T06:09:03.574Z,4.63
2022-11-20T06:12:15.694Z,5.37
2022-11-20T06:15:19.651Z,5.40
2022-11-20T06:18:43.689Z,4.80
2022-11-20T06:21:43.679Z,5.20
2022-11-20T06:25:09.670Z,4.40
2022-11-20T06:28:09.741Z,4.73
2022-11-20T06:31:33.703Z,5.03
2022-11-20T06:34:33.747Z,5.37
2022-11-20T06:37:45.709Z,4.57
2022-11-20T06:40:59.724Z,4.90
2022-11-20T06:44:11.720Z,5.33
2022-11-20T06:47:11.759Z,5.00
2022-11-20T06:50:23.700Z,4.97
2022-11-20T06:53:23.788Z,5.03
2022-11-20T06:56:48.887Z,4.90
2022-11-20T06:59:48.828Z,5.07
2022-11-20T07:03:00.837Z,5.83
2022-11-20T07:06:00.823Z,5.40
2022-11-20T07:09:13.087Z,6.17
2022-11-20T07:12:26.851Z,5.40
2022-11-20T07:15:50.825Z,5.83
2022-11-20T07:18:51.282Z,5.73
2022-11-20T07:22:02.858Z,5.87
2022-11-20T07:25:02.819Z,6.37
2022-11-20T07:28:29.945Z,6.10
2022-11-20T07:31:30.069Z,5.40
2022-11-20T07:34:41.867Z,5.17
2022-11-20T07:37:41.930Z,5.40
2022-11-20T07:41:09.881Z,5.50
2022-11-20T07:44:23.923Z,5.15
2022-11-20T07:47:35.885Z,5.23
2022-11-20T07:50:35.918Z,5.95
2022-11-20T07:53:47.974Z,5.57
2022-11-20T07:56:47.924Z,5.50
2022-11-20T08:00:13.989Z,4.93
2022-11-20T08:03:25.977Z,5.23
2022-11-20T08:06:26.047Z,5.60
2022-11-20T08:09:39.035Z,5.50
2022-11-20T08:12:44.570Z,5.50
2022-11-20T08:16:12.036Z,5.00
2022-11-20T08:19:12.094Z,5.33
2022-11-20T08:22:25.074Z,5.30
2022-11-20T08:25:25.001Z,5.70
2022-11-20T08:28:38.115Z,5.00
2022-11-20T08:31:52.060Z,6.13
2022-11-20T08:35:04.065Z,5.43
2022-11-20T08:38:04.047Z,5.37
2022-11-20T08:41:41.147Z,6.10
2022-11-20T08:44:41.100Z,5.85
2022-11-20T08:48:12.089Z,5.35
2022-11-20T08:51:24.139Z,5.33
2022-11-20T08:54:36.213Z,5.57
2022-11-20T08:57:50.848Z,5.77
2022-11-20T09:00:49.135Z,5.43
2022-11-20T09:04:03.251Z,6.03
2022-11-20T09:07:15.313Z,5.83
2022-11-20T09:10:30.442Z,4.70
2022-11-20T09:13:27.230Z,6.10
2022-11-20T09:16:27.234Z,5.80
2022-11-20T09:19:53.367Z,6.33
2022-11-20T09:23:05.225Z,5.87
2022-11-20T09:26:32.232Z,5.70
2022-11-20T09:29:36.275Z,6.30
2022-11-20T09:32:50.407Z,5.70
2022-11-20T09:36:04.313Z,5.70
2022-11-20T09:39:16.378Z,5.93
2022-11-20T09:42:32.281Z,6.67
2022-11-20T09:46:01.353Z,5.90
2022-11-20T09:49:31.932Z,6.27
2022-11-20T09:52:52.338Z,5.45
2022-11-20T09:56:07.312Z,5.90
2022-11-20T09:59:31.310Z,6.23
2022-11-20T10:02:43.336Z,6.10
2022-11-20T10:06:10.470Z,6.33
2022-11-20T10:09:26.372Z,6.10
2022-11-20T10:12:51.417Z,5.75
2022-11-20T10:16:03.403Z,6.30
2022-11-20T10:19:29.472Z,6.10
2022-11-20T10:22:43.373Z,6.27
2022-11-20T10:26:09.439Z,6.00
2022-11-20T10:29:25.615Z,6.40
2022-11-20T10:32:49.461Z,6.07
2022-11-20T10:36:01.442Z,5.80
2022-11-20T10:39:25.466Z,6.10
2022-11-20T10:42:39.466Z,6.17
2022-11-20T10:46:05.482Z,5.33
2022-11-20T10:49:05.536Z,6.43
2022-11-20T10:52:30.519Z,6.37
2022-11-20T10:55:48.572Z,5.50
2022-11-20T10:59:16.547Z,5.17
2022-11-20T11:02:39.515Z,5.93
2022-11-20T11:06:03.513Z,5.60
2022-11-20T11:09:15.558Z,5.37
2022-11-20T11:12:40.526Z,5.30
2022-11-20T11:15:54.509Z,4.97
2022-11-20T11:19:28.607Z,5.05
2022-11-20T11:22:40.565Z,4.80
2022-11-20T11:25:52.568Z,4.90
2022-11-20T11:28:52.604Z,5.03
2022-11-20T11:32:19.636Z,4.57
2022-11-20T11:35:31.645Z,4.95
2022-11-20T11:38:55.593Z,5.57
2022-11-20T11:42:07.687Z,5.60
2022-11-20T11:45:31.727Z,5.10
2022-11-20T11:48:49.566Z,4.97
2022-11-20T11:52:11.707Z,5.13
2022-11-20T11:55:24.695Z,5.10
2022-11-20T11:58:57.673Z,5.13
2022-11-20T12:02:12.773Z,6.20
2022-11-20T12:05:42.701Z,5.23
2022-11-20T12:08:55.766Z,5.70
2022-11-20T12:12:19.752Z,5.80
2022-11-20T12:15:32.726Z,5.15
2022-11-20T12:18:47.788Z,5.00
2022-11-20T12:22:05.330Z,5.15
2022-11-20T12:25:32.748Z,4.93
2022-11-20T12:28:47.887Z,5.43
2022-11-20T12:32:14.779Z,5.03
2022-11-20T12:35:26.876Z,4.80
2022-11-20T12:38:58.818Z,5.25
2022-11-20T12:42:22.446Z,5.45
2022-11-20T12:45:50.896Z,5.67
2022-11-20T12:49:11.880Z,4.97
2022-11-20T12:52:41.910Z,4.47
2022-11-20T12:55:55.905Z,4.95
2022-11-20T12:59:21.279Z,4.83
2022-11-20T13:02:34.923Z,4.90
2022-11-20T13:06:01.932Z,5.80
2022-11-20T13:09:13.928Z,5.25
2022-11-20T13:12:39.941Z,5.00
2022-11-20T13:15:53.930Z,5.90
2022-11-20T13:19:17.922Z,5.80
2022-11-20T13:22:30.007Z,6.07
2022-11-20T13:25:54.984Z,5.40
2022-11-20T13:29:11.961Z,5.77
2022-11-20T13:32:38.054Z,6.17
2022-11-20T13:35:51.011Z,6.47
2022-11-20T13:39:15.019Z,5.57
2022-11-20T13:42:26.984Z,5.33
2022-11-20T13:45:53.064Z,5.77
2022-11-20T13:49:05.008Z,5.80
2022-11-20T13:52:30.105Z,5.73
2022-11-20T13:55:43.058Z,6.15
2022-11-20T13:59:14.577Z,6.77
2022-11-20T14:02:22.043Z,6.00
2022-11-20T14:05:46.179Z,5.90
2022-11-20T14:08:58.180Z,6.83
2022-11-20T14:12:23.150Z,6.87
2022-11-20T14:15:48.139Z,7.00
2022-11-20T14:19:14.192Z,6.95
2022-11-20T14:22:33.119Z,6.40
2022-11-20T14:25:57.181Z,7.17
2022-11-20T14:29:09.150Z,6.57
2022-11-20T14:32:34.135Z,6.33
2022-11-20T14:35:48.340Z,6.87
2022-11-20T14:39:12.238Z,7.17
2022-11-20T14:42:25.194Z,7.00
2022-11-20T14:45:50.231Z,7.43
2022-11-20T14:49:03.255Z,7.33
2022-11-20T14:52:29.231Z,7.03
2022-11-20T14:55:41.234Z,6.53
2022-11-20T14:58:54.280Z,6.47
2022-11-20T15:02:06.269Z,6.47
2022-11-20T15:05:19.259Z,6.85
2022-11-20T15:08:33.317Z,7.03
2022-11-20T15:11:57.294Z,7.83
2022-11-20T15:15:09.371Z,7.47
2022-11-20T15:18:36.282Z,6.95
2022-11-20T15:21:48.337Z,7.33
2022-11-20T15:25:14.358Z,7.40
2022-11-20T15:28:14.303Z,7.27
2022-11-20T15:31:38.339Z,7.33
2022-11-20T15:34:52.334Z,7.63
2022-11-20T15:38:07.394Z,8.00
2022-11-20T15:41:21.410Z,8.30
2022-11-20T15:44:36.421Z,8.10
2022-11-20T15:47:48.407Z,7.20
2022-11-20T15:51:13.441Z,7.50
2022-11-20T15:54:25.793Z,7.43
2022-11-20T15:57:53.475Z,7.93
2022-11-20T16:00:53.437Z,7.95
2022-11-20T16:04:18.484Z,7.70
2022-11-20T16:07:30.588Z,8.00
2022-11-20T16:10:43.527Z,8.80
2022-11-20T16:14:03.327Z,7.97
2022-11-20T16:17:27.464Z,8.83
2022-11-20T16:20:27.461Z,8.95
2022-11-20T16:23:39.497Z,8.53
2022-11-20T16:26:39.566Z,8.10
2022-11-20T16:30:05.578Z,7.83
2022-11-20T16:33:05.558Z,8.57
2022-11-20T16:36:33.545Z,9.55
2022-11-20T16:39:33.548Z,8.55
2022-11-20T16:42:57.575Z,8.40
2022-11-20T16:46:11.538Z,8.90
2022-11-20T16:49:38.582Z,8.47
2022-11-20T16:52:38.559Z,8.37
2022-11-20T16:55:50.711Z,8.63
2022-11-20T16:58:53.578Z,8.20
2022-11-20T17:02:19.603Z,9.00
2022-11-20T17:05:20.617Z,8.53
2022-11-20T17:08:32.685Z,8.93
2022-11-20T17:11:47.628Z,8.53
2022-11-20T17:15:02.645Z,8.50
2022-11-20T17:18:16.702Z,8.40
2022-11-20T17:21:42.750Z,8.67
2022-11-20T17:24:42.727Z,8.65
2022-11-20T17:27:58.763Z,7.97
2022-11-20T17:30:58.715Z,8.63
2022-11-20T17:34:25.058Z,7.63
2022-11-20T17:37:36.719Z,7.77
2022-11-20T17:40:48.790Z,8.13
2022-11-20T17:44:00.797Z,10.05
2022-11-20T17:47:12.776Z,10.10
2022-11-20T17:50:25.754Z,9.13
2022-11-20T17:53:37.822Z,9.17
2022-11-20T17:56:55.216Z,9.27
2022-11-20T18:00:07.819Z,9.53
2022-11-20T18:03:19.787Z,8.70
2022-11-20T18:06:36.834Z,8.97
2022-11-20T18:09:48.881Z,9.40
2022-11-20T18:12:48.858Z,10.43
2022-11-20T18:16:03.852Z,9.13
2022-11-20T18:19:17.795Z,9.30
2022-11-20T18:22:43.857Z,7.93
2022-11-20T18:25:43.858Z,9.07
2022-11-20T18:28:55.887Z,9.03
2022-11-20T18:32:07.883Z,9.63
2022-11-20T18:35:21.933Z,9.17
2022-11-20T18:38:35.960Z,8.20
2022-11-20T18:41:53.760Z,8.97
2022-11-20T18:45:06.944Z,8.70
2022-11-20T18:48:19.045Z,8.60
2022-11-20T18:51:30.931Z,9.27
2022-11-20T18:54:55.959Z,9.00
2022-11-20T18:57:56.043Z,9.00
2022-11-20T19:01:08.086Z,9.80
2022-11-20T19:04:07.962Z,8.43
2022-11-20T19:07:32.093Z,9.07
2022-11-20T19:10:46.004Z,8.13
2022-11-20T19:14:10.017Z,8.77
2022-11-20T19:17:10.052Z,8.95
2022-11-20T19:20:37.061Z,9.55
2022-11-20T19:23:37.047Z,10.10
2022-11-20T19:27:04.117Z,10.23
2022-11-20T19:30:04.051Z,10.00
2022-11-20T19:33:17.122Z,8.70
2022-11-20T19:36:35.111Z,8.77
2022-11-20T19:39:48.183Z,9.10
2022-11-20T19:43:01.079Z,8.67
2022-11-20T19:46:26.162Z,8.33
2022-11-20T19:49:38.129Z,8.47
2022-11-20T19:52:53.232Z,8.77
2022-11-20T19:56:02.121Z,9.77
2022-11-20T19:59:28.202Z,9.20
2022-11-20T20:02:28.201Z,9.83
2022-11-20T20:05:40.190Z,8.65
2022-11-20T20:08:40.168Z,9.13
2022-11-20T20:12:05.218Z,8.10
2022-11-20T20:15:19.234Z,9.03
2022-11-20T20:18:43.263Z,9.07
2022-11-20T20:21:55.279Z,8.20
2022-11-20T20:25:08.347Z,8.80
2022-11-20T20:28:20.274Z,8.87
2022-11-20T20:31:46.331Z,9.23
2022-11-20T20:34:46.241Z,10.50
2022-11-20T20:37:58.261Z,8.83
2022-11-20T20:41:13.283Z,8.75
2022-11-20T20:44:30.867Z,9.80
2022-11-20T20:47:44.318Z,8.65
2022-11-20T20:51:08.324Z,9.13
2022-11-20T20:54:23.376Z,10.13
2022-11-20T20:57:47.329Z,9.77
2022-11-20T21:00:47.368Z,9.90
2022-11-20T21:04:13.397Z,8.65
2022-11-20T21:07:13.528Z,9.05
2022-11-20T21:10:25.416Z,9.80
2022-11-20T21:13:25.440Z,8.83
2022-11-20T21:16:38.415Z,8.63
2022-11-20T21:19:52.450Z,8.50
2022-11-20T21:22:53.042Z,8.75
2022-11-20T21:25:53.411Z,8.93
2022-11-20T21:29:06.463Z,7.97
2022-11-20T21:32:18.441Z,9.77
2022-11-20T21:35:44.515Z,8.60
2022-11-20T21:38:44.538Z,9.60
2022-11-20T21:42:08.484Z,9.00
2022-11-20T21:45:08.420Z,8.13
2022-11-20T21:48:20.555Z,8.15
2022-11-20T21:51:37.555Z,9.90
2022-11-20T21:54:49.554Z,8.93
2022-11-20T21:57:49.529Z,8.53
2022-11-20T22:01:14.634Z,8.90
2022-11-20T22:04:28.595Z,8.17
2022-11-20T22:07:41.626Z,9.23
2022-11-20T22:10:53.582Z,8.67
2022-11-20T22:14:11.154Z,8.33
2022-11-20T22:17:40.635Z,9.07
2022-11-20T22:21:04.677Z,9.20
2022-11-20T22:24:31.663Z,7.50
2022-11-20T22:27:31.639Z,8.30
2022-11-20T22:30:44.628Z,9.50
2022-11-20T22:33:56.646Z,7.97
2022-11-20T22:37:11.696Z,8.87
2022-11-20T22:40:25.689Z,9.30
2022-11-20T22:43:38.705Z,9.05
2022-11-20T22:46:54.169Z,8.70
2022-11-20T22:50:06.686Z,8.40
2022-11-20T22:53:06.761Z,8.90
2022-11-20T22:56:32.697Z,8.33
2022-11-20T22:59:32.779Z,8.87
2022-11-20T23:02:44.806Z,8.07
2022-11-20T23:05:56.818Z,8.23
2022-11-20T23:09:20.819Z,8.60
2022-11-20T23:12:34.791Z,8.37
2022-11-20T23:15:48.841Z,8.80
2022-11-20T23:19:00.868Z,8.05
2022-11-20T23:22:14.760Z,8.27
2022-11-20T23:25:26.824Z,8.30
2022-11-20T23:28:51.848Z,8.27
2022-11-20T23:31:51.856Z,8.03
2022-11-20T23:35:06.840Z,8.43
2022-11-20T23:38:06.874Z,8.43
2022-11-20T23:41:30.930Z,8.30
2022-11-20T23:44:44.916Z,7.70
2022-11-20T23:47:56.914Z,7.70
2022-11-20T23:51:08.847Z,8.40
2022-11-20T23:54:20.937Z,7.53
2022-11-20T23:57:20.858Z,8.63
